首页
METAR-TAF:

METAR-TAF

机场 :

兰辛首都地区国际机场

兰辛, 密歇根州, 美国

纬度: 42-46-49N, 经度: 084-34-44W, 海拔: 262米

当前天气观测

该预报发布于14分钟前的20:53 UTC
风速12节,风向西
温度 27°C
湿度 62%
气压 1007 hPa
能見度: 16.1公里
散云层高于3000英尺

METAR: KLAN 182053Z 26012KT 10SM SCT030 27/19 A2975 RMK AO2 SLP069 T02720189 58009

时间: 17:07 (21:07 UTC)

预报

该预报发布于3小时和27分钟前的17:40 UTC
预报有效从18日的 18点(UTC)到 19日的 18点(UTC)
风速10节,风向西南
能見度: 10公里
多云层高于5000英尺
从 18日的 2000点(UTC)
风速10节,风向西
能見度: 10公里
散云层高于4000英尺
附近有阵雨
从 18日的 2300点(UTC)
风速6节,风向西转西北
能見度: 10公里
散云层高于7000英尺
从 19日的 1200点(UTC)
风速4节,风向多变
能見度: 10公里
多云层高于8000英尺, 积雨云.
小阵雨, 附近有雷暴

TAF: KLAN 181740Z 1818/1918 23010KT P6SM BKN050 FM182000 26010KT P6SM VCSH SCT040 FM182300 30006KT P6SM SCT070 FM191200 VRB04KT P6SM -SHRA VCTS BKN080CB

超过4000个机场的气象观测和天气预报(METAR&TAF报告)。

可查询的气象台以黄色和红色小点在地图上表示。

将鼠标移到小点上方,可查看气象台名称。

然后点击查看天气观测和预报。

如需切换地图:点击带黑十字的绿色按钮放大地图;点击带横线的绿色按钮缩小地图;或者点击绿色箭头查看邻近地区的地图。


METAR-TAF: